sensor_id;sensor_type;location;lat;lon;timestamp;pressure;altitude;pressure_sealevel;temperature;humidity
19457;BME280;9867;48.094;11.478;2023-03-20T00:00:29;95350.69;;;10.14;100.00
19457;BME280;9867;48.094;11.478;2023-03-20T00:02:57;95333.72;;;9.57;100.00
19457;BME280;9867;48.094;11.478;2023-03-20T00:05:25;95336.84;;;9.32;100.00
19457;BME280;9867;48.094;11.478;2023-03-20T00:07:56;95337.63;;;9.11;100.00
19457;BME280;9867;48.094;11.478;2023-03-20T00:10:30;95327.63;;;8.95;100.00
19457;BME280;9867;48.094;11.478;2023-03-20T00:12:59;95321.84;;;8.86;100.00
19457;BME280;9867;48.094;11.478;2023-03-20T00:15:30;95328.59;;;8.72;100.00
19457;BME280;9867;48.094;11.478;2023-03-20T00:17:59;95325.63;;;8.75;100.00
19457;BME280;9867;48.094;11.478;2023-03-20T00:20:27;95334.44;;;8.87;100.00
19457;BME280;9867;48.094;11.478;2023-03-20T00:22:58;95329.25;;;8.81;100.00
19457;BME280;9867;48.094;11.478;2023-03-20T00:25:26;95334.66;;;8.71;100.00
19457;BME280;9867;48.094;11.478;2023-03-20T00:27:54;95338.69;;;8.80;100.00
19457;BME280;9867;48.094;11.478;2023-03-20T00:30:25;95326.44;;;8.76;100.00
19457;BME280;9867;48.094;11.478;2023-03-20T00:32:56;95326.91;;;8.65;100.00
19457;BME280;9867;48.094;11.478;2023-03-20T00:35:27;95328.50;;;8.66;100.00
19457;BME280;9867;48.094;11.478;2023-03-20T00:37:58;95329.66;;;8.63;100.00
19457;BME280;9867;48.094;11.478;2023-03-20T00:40:28;95321.63;;;8.66;100.00
19457;BME280;9867;48.094;11.478;2023-03-20T00:42:59;95327.78;;;8.57;100.00
19457;BME280;9867;48.094;11.478;2023-03-20T00:45:29;95328.78;;;8.56;100.00
19457;BME280;9867;48.094;11.478;2023-03-20T00:47:58;95326.75;;;8.51;100.00
19457;BME280;9867;48.094;11.478;2023-03-20T00:50:29;95325.06;;;8.59;100.00
19457;BME280;9867;48.094;11.478;2023-03-20T00:52:58;95326.75;;;8.66;100.00
19457;BME280;9867;48.094;11.478;2023-03-20T00:55:28;95324.63;;;8.55;100.00
19457;BME280;9867;48.094;11.478;2023-03-20T00:57:57;95325.69;;;8.61;100.00
19457;BME280;9867;48.094;11.478;2023-03-20T01:00:34;95326.56;;;8.53;100.00
19457;BME280;9867;48.094;11.478;2023-03-20T01:03:10;95322.16;;;8.62;100.00
19457;BME280;9867;48.094;11.478;2023-03-20T01:05:38;95323.22;;;8.52;100.00
19457;BME280;9867;48.094;11.478;2023-03-20T01:08:15;95326.38;;;8.54;100.00
19457;BME280;9867;48.094;11.478;2023-03-20T01:10:44;95337.94;;;8.50;100.00
19457;BME280;9867;48.094;11.478;2023-03-20T01:13:18;95324.00;;;8.53;100.00
19457;BME280;9867;48.094;11.478;2023-03-20T01:15:47;95325.41;;;8.55;100.00
19457;BME280;9867;48.094;11.478;2023-03-20T01:18:17;95330.09;;;8.52;100.00
19457;BME280;9867;48.094;11.478;2023-03-20T01:20:45;95320.59;;;8.46;100.00
19457;BME280;9867;48.094;11.478;2023-03-20T01:23:15;95325.59;;;8.54;100.00
19457;BME280;9867;48.094;11.478;2023-03-20T01:25:43;95328.41;;;8.59;100.00
19457;BME280;9867;48.094;11.478;2023-03-20T01:28:14;95320.66;;;8.52;100.00
19457;BME280;9867;48.094;11.478;2023-03-20T01:30:43;95338.16;;;8.49;100.00
19457;BME280;9867;48.094;11.478;2023-03-20T01:33:13;95336.91;;;8.45;100.00
19457;BME280;9867;48.094;11.478;2023-03-20T01:35:43;95332.06;;;8.50;100.00
19457;BME280;9867;48.094;11.478;2023-03-20T01:38:13;95331.41;;;8.63;100.00
19457;BME280;9867;48.094;11.478;2023-03-20T01:40:48;95333.97;;;8.63;100.00
19457;BME280;9867;48.094;11.478;2023-03-20T01:43:20;95339.63;;;8.58;100.00
19457;BME280;9867;48.094;11.478;2023-03-20T01:45:56;95335.19;;;8.52;100.00
19457;BME280;9867;48.094;11.478;2023-03-20T01:48:53;95335.59;;;8.49;100.00
19457;BME280;9867;48.094;11.478;2023-03-20T01:51:24;95334.06;;;8.54;100.00
19457;BME280;9867;48.094;11.478;2023-03-20T01:53:58;95331.28;;;8.49;100.00
19457;BME280;9867;48.094;11.478;2023-03-20T01:56:31;95333.44;;;8.52;100.00
19457;BME280;9867;48.094;11.478;2023-03-20T01:59:03;95326.94;;;8.50;100.00
19457;BME280;9867;48.094;11.478;2023-03-20T02:01:33;95329.50;;;8.50;100.00
19457;BME280;9867;48.094;11.478;2023-03-20T02:04:02;95331.19;;;8.43;100.00
19457;BME280;9867;48.094;11.478;2023-03-20T02:06:44;95323.94;;;8.46;100.00
19457;BME280;9867;48.094;11.478;2023-03-20T02:09:16;95329.69;;;8.48;100.00
19457;BME280;9867;48.094;11.478;2023-03-20T02:11:47;95324.13;;;8.45;100.00
19457;BME280;9867;48.094;11.478;2023-03-20T02:14:19;95326.50;;;8.46;100.00
19457;BME280;9867;48.094;11.478;2023-03-20T02:17:00;95328.00;;;8.41;100.00
19457;BME280;9867;48.094;11.478;2023-03-20T02:19:45;95321.22;;;8.33;100.00
19457;BME280;9867;48.094;11.478;2023-03-20T02:22:44;95320.44;;;8.33;100.00
19457;BME280;9867;48.094;11.478;2023-03-20T02:28:38;95323.25;;;8.38;100.00
19457;BME280;9867;48.094;11.478;2023-03-20T02:31:31;95324.56;;;8.34;100.00
19457;BME280;9867;48.094;11.478;2023-03-20T02:34:31;95324.09;;;8.30;100.00
19457;BME280;9867;48.094;11.478;2023-03-20T02:40:16;95332.22;;;8.34;100.00
19457;BME280;9867;48.094;11.478;2023-03-20T02:42:53;95325.25;;;8.28;100.00
19457;BME280;9867;48.094;11.478;2023-03-20T02:45:27;95324.25;;;8.29;100.00
19457;BME280;9867;48.094;11.478;2023-03-20T02:48:14;95319.63;;;8.32;100.00
19457;BME280;9867;48.094;11.478;2023-03-20T02:50:50;95326.47;;;8.32;100.00
19457;BME280;9867;48.094;11.478;2023-03-20T02:53:32;95320.69;;;8.23;100.00
19457;BME280;9867;48.094;11.478;2023-03-20T02:56:10;95322.50;;;8.29;100.00
19457;BME280;9867;48.094;11.478;2023-03-20T02:58:41;95330.47;;;8.34;100.00
19457;BME280;9867;48.094;11.478;2023-03-20T03:01:16;95326.59;;;8.38;100.00
19457;BME280;9867;48.094;11.478;2023-03-20T03:03:49;95323.69;;;8.27;100.00
19457;BME280;9867;48.094;11.478;2023-03-20T03:06:22;95332.31;;;8.26;100.00
19457;BME280;9867;48.094;11.478;2023-03-20T03:08:57;95329.50;;;8.20;100.00
19457;BME280;9867;48.094;11.478;2023-03-20T03:11:28;95326.25;;;8.27;100.00
19457;BME280;9867;48.094;11.478;2023-03-20T03:13:57;95317.16;;;8.24;100.00
19457;BME280;9867;48.094;11.478;2023-03-20T03:16:29;95326.13;;;8.20;100.00
19457;BME280;9867;48.094;11.478;2023-03-20T03:19:04;95323.84;;;8.25;100.00
19457;BME280;9867;48.094;11.478;2023-03-20T03:21:35;95320.50;;;8.25;100.00
19457;BME280;9867;48.094;11.478;2023-03-20T03:24:20;95317.69;;;8.19;100.00
19457;BME280;9867;48.094;11.478;2023-03-20T03:27:11;95319.44;;;8.19;100.00
19457;BME280;9867;48.094;11.478;2023-03-20T03:29:40;95325.06;;;8.29;100.00
19457;BME280;9867;48.094;11.478;2023-03-20T03:32:22;95328.25;;;8.31;100.00
19457;BME280;9867;48.094;11.478;2023-03-20T03:34:50;95326.66;;;8.30;100.00
19457;BME280;9867;48.094;11.478;2023-03-20T03:37:24;95338.63;;;8.30;100.00
19457;BME280;9867;48.094;11.478;2023-03-20T03:40:04;95345.28;;;8.39;100.00
19457;BME280;9867;48.094;11.478;2023-03-20T03:42:38;95338.31;;;8.33;100.00
19457;BME280;9867;48.094;11.478;2023-03-20T03:45:12;95340.16;;;8.24;100.00
19457;BME280;9867;48.094;11.478;2023-03-20T03:47:43;95338.22;;;8.26;100.00
19457;BME280;9867;48.094;11.478;2023-03-20T03:50:15;95337.22;;;8.27;100.00
19457;BME280;9867;48.094;11.478;2023-03-20T03:52:48;95336.63;;;8.25;100.00
19457;BME280;9867;48.094;11.478;2023-03-20T03:55:22;95344.13;;;8.27;100.00
19457;BME280;9867;48.094;11.478;2023-03-20T03:58:02;95348.53;;;8.18;100.00
19457;BME280;9867;48.094;11.478;2023-03-20T04:00:33;95350.44;;;8.31;100.00
19457;BME280;9867;48.094;11.478;2023-03-20T04:03:04;95347.88;;;8.31;100.00
19457;BME280;9867;48.094;11.478;2023-03-20T04:05:35;95366.22;;;8.19;100.00
19457;BME280;9867;48.094;11.478;2023-03-20T04:08:04;95363.75;;;8.11;100.00
19457;BME280;9867;48.094;11.478;2023-03-20T04:10:34;95363.47;;;8.06;100.00
19457;BME280;9867;48.094;11.478;2023-03-20T04:13:02;95368.16;;;8.17;100.00
19457;BME280;9867;48.094;11.478;2023-03-20T04:15:30;95368.06;;;8.11;100.00
19457;BME280;9867;48.094;11.478;2023-03-20T04:17:58;95372.13;;;8.20;100.00
19457;BME280;9867;48.094;11.478;2023-03-20T04:20:26;95375.84;;;8.17;100.00
19457;BME280;9867;48.094;11.478;2023-03-20T04:22:53;95377.78;;;8.15;100.00
19457;BME280;9867;48.094;11.478;2023-03-20T04:25:24;95381.22;;;8.23;100.00
19457;BME280;9867;48.094;11.478;2023-03-20T04:27:55;95374.19;;;8.25;100.00
19457;BME280;9867;48.094;11.478;2023-03-20T04:30:51;95390.78;;;8.06;100.00
19457;BME280;9867;48.094;11.478;2023-03-20T04:33:48;95382.16;;;8.07;100.00
19457;BME280;9867;48.094;11.478;2023-03-20T04:36:42;95392.75;;;8.18;100.00
19457;BME280;9867;48.094;11.478;2023-03-20T04:39:13;95398.66;;;8.19;100.00
19457;BME280;9867;48.094;11.478;2023-03-20T04:41:41;95393.38;;;8.20;100.00
19457;BME280;9867;48.094;11.478;2023-03-20T04:44:10;95395.84;;;8.14;100.00
19457;BME280;9867;48.094;11.478;2023-03-20T04:46:41;95397.66;;;8.05;100.00
19457;BME280;9867;48.094;11.478;2023-03-20T04:49:14;95395.53;;;7.94;100.00
19457;BME280;9867;48.094;11.478;2023-03-20T04:51:42;95396.06;;;7.90;100.00
19457;BME280;9867;48.094;11.478;2023-03-20T04:54:12;95402.13;;;7.88;100.00
19457;BME280;9867;48.094;11.478;2023-03-20T04:56:41;95399.38;;;7.75;100.00
19457;BME280;9867;48.094;11.478;2023-03-20T04:59:14;95409.44;;;7.77;100.00
19457;BME280;9867;48.094;11.478;2023-03-20T05:01:43;95399.72;;;7.72;100.00
19457;BME280;9867;48.094;11.478;2023-03-20T05:04:10;95402.72;;;7.76;100.00
19457;BME280;9867;48.094;11.478;2023-03-20T05:06:39;95410.56;;;7.74;100.00
19457;BME280;9867;48.094;11.478;2023-03-20T05:09:07;95410.28;;;7.69;100.00
19457;BME280;9867;48.094;11.478;2023-03-20T05:11:36;95415.16;;;7.56;100.00
19457;BME280;9867;48.094;11.478;2023-03-20T05:14:04;95399.31;;;7.61;100.00
19457;BME280;9867;48.094;11.478;2023-03-20T05:17:03;95404.38;;;7.69;100.00
19457;BME280;9867;48.094;11.478;2023-03-20T05:19:54;95410.16;;;7.63;100.00
19457;BME280;9867;48.094;11.478;2023-03-20T05:22:37;95410.66;;;7.58;100.00
19457;BME280;9867;48.094;11.478;2023-03-20T05:25:11;95405.91;;;7.55;100.00
19457;BME280;9867;48.094;11.478;2023-03-20T05:28:03;95411.81;;;7.56;100.00
19457;BME280;9867;48.094;11.478;2023-03-20T05:30:52;95413.16;;;7.66;100.00
19457;BME280;9867;48.094;11.478;2023-03-20T05:33:36;95404.56;;;7.44;100.00
19457;BME280;9867;48.094;11.478;2023-03-20T05:36:39;95417.09;;;7.54;100.00
19457;BME280;9867;48.094;11.478;2023-03-20T05:39:27;95417.16;;;7.46;100.00
19457;BME280;9867;48.094;11.478;2023-03-20T05:42:14;95431.34;;;7.48;100.00
19457;BME280;9867;48.094;11.478;2023-03-20T05:45:00;95431.25;;;7.57;100.00
19457;BME280;9867;48.094;11.478;2023-03-20T05:47:43;95436.34;;;7.57;100.00
19457;BME280;9867;48.094;11.478;2023-03-20T05:50:24;95439.28;;;7.53;100.00
19457;BME280;9867;48.094;11.478;2023-03-20T05:53:14;95437.78;;;7.59;100.00
19457;BME280;9867;48.094;11.478;2023-03-20T05:55:48;95438.88;;;7.65;100.00
19457;BME280;9867;48.094;11.478;2023-03-20T05:58:36;95442.16;;;7.73;100.00
19457;BME280;9867;48.094;11.478;2023-03-20T06:01:39;95453.69;;;7.69;100.00
19457;BME280;9867;48.094;11.478;2023-03-20T06:04:20;95464.69;;;7.70;100.00
19457;BME280;9867;48.094;11.478;2023-03-20T06:07:10;95454.13;;;7.73;100.00
19457;BME280;9867;48.094;11.478;2023-03-20T06:09:41;95460.59;;;7.83;100.00
19457;BME280;9867;48.094;11.478;2023-03-20T06:12:11;95465.88;;;7.82;100.00
19457;BME280;9867;48.094;11.478;2023-03-20T06:14:39;95466.75;;;7.74;100.00
19457;BME280;9867;48.094;11.478;2023-03-20T06:17:08;95472.81;;;7.73;100.00
19457;BME280;9867;48.094;11.478;2023-03-20T06:19:36;95472.00;;;7.73;100.00
19457;BME280;9867;48.094;11.478;2023-03-20T06:22:06;95476.50;;;7.71;100.00
19457;BME280;9867;48.094;11.478;2023-03-20T06:24:36;95483.91;;;7.58;100.00
19457;BME280;9867;48.094;11.478;2023-03-20T06:27:04;95481.94;;;7.68;100.00
19457;BME280;9867;48.094;11.478;2023-03-20T06:29:33;95484.44;;;7.76;100.00
19457;BME280;9867;48.094;11.478;2023-03-20T06:32:13;95476.50;;;7.71;100.00
19457;BME280;9867;48.094;11.478;2023-03-20T06:34:44;95486.41;;;7.66;100.00
19457;BME280;9867;48.094;11.478;2023-03-20T06:37:13;95486.88;;;7.69;100.00
19457;BME280;9867;48.094;11.478;2023-03-20T06:39:42;95488.34;;;7.86;100.00
19457;BME280;9867;48.094;11.478;2023-03-20T06:42:12;95488.63;;;7.92;100.00
19457;BME280;9867;48.094;11.478;2023-03-20T06:44:43;95492.66;;;8.09;100.00
19457;BME280;9867;48.094;11.478;2023-03-20T06:47:22;95488.16;;;8.11;100.00
19457;BME280;9867;48.094;11.478;2023-03-20T06:49:50;95489.81;;;8.04;100.00
19457;BME280;9867;48.094;11.478;2023-03-20T06:52:19;95492.91;;;7.99;100.00
19457;BME280;9867;48.094;11.478;2023-03-20T06:55:08;95494.97;;;8.18;100.00
19457;BME280;9867;48.094;11.478;2023-03-20T06:57:36;95491.50;;;8.34;100.00
19457;BME280;9867;48.094;11.478;2023-03-20T07:00:06;95486.41;;;8.34;100.00
19457;BME280;9867;48.094;11.478;2023-03-20T07:03:01;95488.81;;;8.28;100.00
19457;BME280;9867;48.094;11.478;2023-03-20T07:05:30;95492.13;;;8.13;100.00
19457;BME280;9867;48.094;11.478;2023-03-20T07:08:02;95492.66;;;8.09;100.00
19457;BME280;9867;48.094;11.478;2023-03-20T07:10:32;95500.94;;;8.11;100.00
19457;BME280;9867;48.094;11.478;2023-03-20T07:13:01;95503.31;;;8.12;100.00
19457;BME280;9867;48.094;11.478;2023-03-20T07:15:29;95498.56;;;8.09;100.00
19457;BME280;9867;48.094;11.478;2023-03-20T07:17:59;95513.16;;;8.24;100.00
19457;BME280;9867;48.094;11.478;2023-03-20T07:20:27;95514.13;;;8.23;100.00
19457;BME280;9867;48.094;11.478;2023-03-20T07:22:55;95518.31;;;8.38;100.00
19457;BME280;9867;48.094;11.478;2023-03-20T07:25:25;95520.94;;;8.68;100.00
19457;BME280;9867;48.094;11.478;2023-03-20T07:28:09;95521.44;;;8.63;100.00
19457;BME280;9867;48.094;11.478;2023-03-20T07:30:40;95527.53;;;8.62;100.00
19457;BME280;9867;48.094;11.478;2023-03-20T07:33:09;95531.78;;;8.84;100.00
19457;BME280;9867;48.094;11.478;2023-03-20T07:35:38;95539.88;;;8.59;100.00
19457;BME280;9867;48.094;11.478;2023-03-20T07:38:06;95539.53;;;8.62;100.00
19457;BME280;9867;48.094;11.478;2023-03-20T07:40:43;95534.34;;;8.70;100.00
19457;BME280;9867;48.094;11.478;2023-03-20T07:43:16;95537.69;;;8.70;100.00
19457;BME280;9867;48.094;11.478;2023-03-20T07:46:07;95545.09;;;8.80;100.00
19457;BME280;9867;48.094;11.478;2023-03-20T07:48:37;95558.94;;;8.71;100.00
19457;BME280;9867;48.094;11.478;2023-03-20T07:51:05;95552.28;;;8.47;100.00
19457;BME280;9867;48.094;11.478;2023-03-20T07:53:33;95552.50;;;8.75;100.00
19457;BME280;9867;48.094;11.478;2023-03-20T07:56:03;95554.19;;;8.68;100.00
19457;BME280;9867;48.094;11.478;2023-03-20T07:58:32;95543.69;;;8.77;100.00
19457;BME280;9867;48.094;11.478;2023-03-20T08:01:01;95534.44;;;8.91;100.00
19457;BME280;9867;48.094;11.478;2023-03-20T08:03:29;95546.25;;;9.07;100.00
19457;BME280;9867;48.094;11.478;2023-03-20T08:05:58;95546.78;;;9.02;100.00
19457;BME280;9867;48.094;11.478;2023-03-20T08:08:27;95550.75;;;9.05;100.00
19457;BME280;9867;48.094;11.478;2023-03-20T08:10:55;95559.66;;;8.79;100.00
19457;BME280;9867;48.094;11.478;2023-03-20T08:13:23;95547.47;;;8.81;100.00
19457;BME280;9867;48.094;11.478;2023-03-20T08:15:52;95558.50;;;8.82;100.00
19457;BME280;9867;48.094;11.478;2023-03-20T08:18:20;95547.47;;;8.81;100.00
19457;BME280;9867;48.094;11.478;2023-03-20T08:20:48;95545.28;;;9.22;100.00
19457;BME280;9867;48.094;11.478;2023-03-20T08:23:16;95566.03;;;9.28;100.00
19457;BME280;9867;48.094;11.478;2023-03-20T08:25:47;95557.72;;;9.40;100.00
19457;BME280;9867;48.094;11.478;2023-03-20T08:28:16;95555.31;;;9.53;100.00
19457;BME280;9867;48.094;11.478;2023-03-20T08:30:44;95549.47;;;9.96;100.00
19457;BME280;9867;48.094;11.478;2023-03-20T08:33:14;95553.16;;;10.29;100.00
19457;BME280;9867;48.094;11.478;2023-03-20T08:35:43;95549.06;;;10.84;100.00
19457;BME280;9867;48.094;11.478;2023-03-20T08:38:12;95551.88;;;10.68;100.00
19457;BME280;9867;48.094;11.478;2023-03-20T08:40:40;95557.50;;;9.92;100.00
19457;BME280;9867;48.094;11.478;2023-03-20T08:43:08;95550.75;;;9.70;100.00
19457;BME280;9867;48.094;11.478;2023-03-20T08:45:36;95546.09;;;10.16;100.00
19457;BME280;9867;48.094;11.478;2023-03-20T08:48:04;95548.63;;;10.80;100.00
19457;BME280;9867;48.094;11.478;2023-03-20T08:50:33;95554.25;;;10.63;100.00
19457;BME280;9867;48.094;11.478;2023-03-20T08:53:01;95550.75;;;10.06;100.00
19457;BME280;9867;48.094;11.478;2023-03-20T08:55:29;95550.59;;;10.50;100.00
19457;BME280;9867;48.094;11.478;2023-03-20T08:57:57;95552.25;;;10.65;100.00
19457;BME280;9867;48.094;11.478;2023-03-20T09:00:25;95561.97;;;10.69;100.00
19457;BME280;9867;48.094;11.478;2023-03-20T09:02:54;95552.97;;;11.08;100.00
19457;BME280;9867;48.094;11.478;2023-03-20T09:05:22;95542.88;;;11.06;100.00
19457;BME280;9867;48.094;11.478;2023-03-20T09:07:51;95555.22;;;11.24;100.00
19457;BME280;9867;48.094;11.478;2023-03-20T09:10:19;95551.66;;;11.73;100.00
19457;BME280;9867;48.094;11.478;2023-03-20T09:12:47;95558.91;;;12.10;100.00
19457;BME280;9867;48.094;11.478;2023-03-20T09:15:15;95556.75;;;12.34;100.00
19457;BME280;9867;48.094;11.478;2023-03-20T09:17:43;95550.38;;;12.10;100.00
19457;BME280;9867;48.094;11.478;2023-03-20T09:20:11;95555.19;;;12.46;100.00
19457;BME280;9867;48.094;11.478;2023-03-20T09:22:39;95561.34;;;11.71;100.00
19457;BME280;9867;48.094;11.478;2023-03-20T09:25:11;95551.78;;;11.99;100.00
19457;BME280;9867;48.094;11.478;2023-03-20T09:27:39;95560.13;;;12.87;100.00
19457;BME280;9867;48.094;11.478;2023-03-20T09:30:08;95568.22;;;12.31;100.00
19457;BME280;9867;48.094;11.478;2023-03-20T09:32:36;95568.41;;;11.62;100.00
19457;BME280;9867;48.094;11.478;2023-03-20T09:35:05;95558.19;;;11.75;100.00
19457;BME280;9867;48.094;11.478;2023-03-20T09:37:33;95560.13;;;11.67;100.00
19457;BME280;9867;48.094;11.478;2023-03-20T09:40:02;95571.63;;;10.95;100.00
19457;BME280;9867;48.094;11.478;2023-03-20T09:42:41;95567.28;;;11.71;100.00
19457;BME280;9867;48.094;11.478;2023-03-20T09:45:17;95568.47;;;11.75;100.00
19457;BME280;9867;48.094;11.478;2023-03-20T09:47:53;95558.78;;;11.71;100.00
19457;BME280;9867;48.094;11.478;2023-03-20T09:50:33;95559.84;;;11.42;100.00
19457;BME280;9867;48.094;11.478;2023-03-20T09:53:07;95567.72;;;10.99;100.00
19457;BME280;9867;48.094;11.478;2023-03-20T09:55:39;95561.84;;;11.05;100.00
19457;BME280;9867;48.094;11.478;2023-03-20T09:58:14;95564.41;;;11.05;100.00
19457;BME280;9867;48.094;11.478;2023-03-20T10:00:45;95556.75;;;10.84;100.00
19457;BME280;9867;48.094;11.478;2023-03-20T10:03:19;95552.28;;;11.27;100.00
19457;BME280;9867;48.094;11.478;2023-03-20T10:05:53;95559.84;;;11.42;100.00
19457;BME280;9867;48.094;11.478;2023-03-20T10:08:26;95559.09;;;11.13;100.00
19457;BME280;9867;48.094;11.478;2023-03-20T10:11:03;95552.78;;;11.09;100.00
19457;BME280;9867;48.094;11.478;2023-03-20T10:13:51;95550.78;;;11.11;100.00
19457;BME280;9867;48.094;11.478;2023-03-20T10:16:31;95554.69;;;11.01;100.00
19457;BME280;9867;48.094;11.478;2023-03-20T10:19:07;95562.81;;;11.04;100.00
19457;BME280;9867;48.094;11.478;2023-03-20T10:21:41;95552.72;;;11.03;100.00
19457;BME280;9867;48.094;11.478;2023-03-20T10:24:16;95553.72;;;11.02;100.00
19457;BME280;9867;48.094;11.478;2023-03-20T10:26:49;95554.66;;;11.35;100.00
19457;BME280;9867;48.094;11.478;2023-03-20T10:29:26;95567.13;;;11.38;100.00
19457;BME280;9867;48.094;11.478;2023-03-20T10:32:04;95559.38;;;11.25;100.00
19457;BME280;9867;48.094;11.478;2023-03-20T10:34:47;95533.31;;;11.28;100.00
19457;BME280;9867;48.094;11.478;2023-03-20T10:37:33;95542.53;;;11.63;100.00
19457;BME280;9867;48.094;11.478;2023-03-20T10:40:22;95543.94;;;11.73;100.00
19457;BME280;9867;48.094;11.478;2023-03-20T10:42:54;95540.66;;;11.92;100.00
19457;BME280;9867;48.094;11.478;2023-03-20T10:45:36;95536.19;;;11.59;100.00
19457;BME280;9867;48.094;11.478;2023-03-20T10:48:13;95526.66;;;12.01;100.00
19457;BME280;9867;48.094;11.478;2023-03-20T10:50:45;95531.81;;;12.21;100.00
19457;BME280;9867;48.094;11.478;2023-03-20T10:53:22;95529.84;;;12.16;100.00
19457;BME280;9867;48.094;11.478;2023-03-20T10:55:55;95529.06;;;12.62;100.00
19457;BME280;9867;48.094;11.478;2023-03-20T10:58:27;95519.78;;;12.48;100.00
19457;BME280;9867;48.094;11.478;2023-03-20T11:00:58;95528.47;;;12.40;100.00
19457;BME280;9867;48.094;11.478;2023-03-20T11:03:28;95515.38;;;12.28;100.00
19457;BME280;9867;48.094;11.478;2023-03-20T11:05:59;95523.31;;;12.27;100.00
19457;BME280;9867;48.094;11.478;2023-03-20T11:08:38;95522.06;;;11.90;100.00
19457;BME280;9867;48.094;11.478;2023-03-20T11:11:08;95514.88;;;11.72;100.00
19457;BME280;9867;48.094;11.478;2023-03-20T11:13:38;95516.53;;;11.93;100.00
19457;BME280;9867;48.094;11.478;2023-03-20T11:16:18;95513.00;;;12.01;100.00
19457;BME280;9867;48.094;11.478;2023-03-20T11:18:46;95512.56;;;11.90;100.00
19457;BME280;9867;48.094;11.478;2023-03-20T11:21:18;95515.13;;;11.77;100.00
19457;BME280;9867;48.094;11.478;2023-03-20T11:23:47;95515.16;;;11.90;100.00
19457;BME280;9867;48.094;11.478;2023-03-20T11:26:17;95510.41;;;11.81;100.00
19457;BME280;9867;48.094;11.478;2023-03-20T11:28:47;95512.56;;;11.77;100.00
19457;BME280;9867;48.094;11.478;2023-03-20T11:31:20;95511.00;;;11.89;100.00
19457;BME280;9867;48.094;11.478;2023-03-20T11:34:09;95501.91;;;11.80;100.00
19457;BME280;9867;48.094;11.478;2023-03-20T11:36:46;95515.13;;;11.77;100.00
19457;BME280;9867;48.094;11.478;2023-03-20T11:39:34;95507.06;;;12.07;100.00
19457;BME280;9867;48.094;11.478;2023-03-20T11:42:20;95510.44;;;12.60;100.00
19457;BME280;9867;48.094;11.478;2023-03-20T11:44:56;95506.06;;;12.87;100.00
19457;BME280;9867;48.094;11.478;2023-03-20T11:47:27;95501.69;;;12.87;100.00
19457;BME280;9867;48.094;11.478;2023-03-20T11:49:59;95500.75;;;12.62;100.00
19457;BME280;9867;48.094;11.478;2023-03-20T11:52:30;95494.19;;;12.79;100.00
19457;BME280;9867;48.094;11.478;2023-03-20T11:55:00;95496.31;;;13.02;100.00
19457;BME280;9867;48.094;11.478;2023-03-20T11:57:34;95492.94;;;13.21;100.00
19457;BME280;9867;48.094;11.478;2023-03-20T12:00:05;95500.06;;;13.19;100.00
19457;BME280;9867;48.094;11.478;2023-03-20T12:05:58;95500.09;;;12.93;100.00
19457;BME280;9867;48.094;11.478;2023-03-20T12:08:27;95498.72;;;12.90;100.00
19457;BME280;9867;48.094;11.478;2023-03-20T12:10:59;95498.72;;;12.97;100.00
19457;BME280;9867;48.094;11.478;2023-03-20T12:13:32;95489.22;;;12.91;100.00
19457;BME280;9867;48.094;11.478;2023-03-20T12:16:04;95493.81;;;12.69;100.00
19457;BME280;9867;48.094;11.478;2023-03-20T12:18:37;95491.66;;;12.40;100.00
19457;BME280;9867;48.094;11.478;2023-03-20T12:21:11;95502.13;;;11.99;100.00
19457;BME280;9867;48.094;11.478;2023-03-20T12:23:44;95496.78;;;12.00;100.00
19457;BME280;9867;48.094;11.478;2023-03-20T12:26:17;95497.56;;;11.81;100.00
19457;BME280;9867;48.094;11.478;2023-03-20T12:28:50;95498.06;;;11.56;100.00
19457;BME280;9867;48.094;11.478;2023-03-20T12:31:23;95497.03;;;11.51;100.00
19457;BME280;9867;48.094;11.478;2023-03-20T12:33:58;95492.28;;;11.48;100.00
19457;BME280;9867;48.094;11.478;2023-03-20T12:36:30;95487.13;;;11.41;100.00
19457;BME280;9867;48.094;11.478;2023-03-20T12:39:01;95489.88;;;11.33;100.00
19457;BME280;9867;48.094;11.478;2023-03-20T12:41:37;95485.50;;;11.27;100.00
19457;BME280;9867;48.094;11.478;2023-03-20T12:44:22;95484.28;;;11.23;100.00
19457;BME280;9867;48.094;11.478;2023-03-20T12:47:02;95490.34;;;11.09;100.00
19457;BME280;9867;48.094;11.478;2023-03-20T12:49:42;95479.31;;;11.15;100.00
19457;BME280;9867;48.094;11.478;2023-03-20T12:52:23;95481.25;;;11.06;100.00
19457;BME280;9867;48.094;11.478;2023-03-20T12:55:09;95496.25;;;11.03;100.00
19457;BME280;9867;48.094;11.478;2023-03-20T12:57:48;95482.88;;;11.20;100.00
19457;BME280;9867;48.094;11.478;2023-03-20T13:00:28;95482.16;;;11.40;100.00
19457;BME280;9867;48.094;11.478;2023-03-20T13:03:08;95476.69;;;11.49;100.00
19457;BME280;9867;48.094;11.478;2023-03-20T13:05:44;95494.69;;;11.56;100.00
19457;BME280;9867;48.094;11.478;2023-03-20T13:08:25;95493.72;;;11.70;100.00
19457;BME280;9867;48.094;11.478;2023-03-20T13:11:03;95494.59;;;12.10;100.00
19457;BME280;9867;48.094;11.478;2023-03-20T13:13:36;95488.25;;;12.06;100.00
19457;BME280;9867;48.094;11.478;2023-03-20T13:16:13;95487.88;;;12.16;100.00
19457;BME280;9867;48.094;11.478;2023-03-20T13:18:54;95484.50;;;12.28;100.00
19457;BME280;9867;48.094;11.478;2023-03-20T13:21:31;95479.94;;;12.63;100.00
19457;BME280;9867;48.094;11.478;2023-03-20T13:24:20;95474.41;;;12.67;100.00
19457;BME280;9867;48.094;11.478;2023-03-20T13:26:57;95473.19;;;12.82;100.00
19457;BME280;9867;48.094;11.478;2023-03-20T13:29:36;95472.75;;;13.56;100.00
19457;BME280;9867;48.094;11.478;2023-03-20T13:32:15;95489.78;;;14.20;100.00
19457;BME280;9867;48.094;11.478;2023-03-20T13:35:02;95481.97;;;13.71;100.00
19457;BME280;9867;48.094;11.478;2023-03-20T13:37:38;95476.69;;;13.59;100.00
19457;BME280;9867;48.094;11.478;2023-03-20T13:40:13;95479.22;;;13.27;100.00
19457;BME280;9867;48.094;11.478;2023-03-20T13:42:46;95472.44;;;13.40;100.00